createdAt,value
2023-01-22T00:00:07.690Z,73.00
2023-01-22T00:02:55.395Z,74.25
2023-01-22T00:05:22.156Z,75.75
2023-01-22T00:07:49.293Z,72.72
2023-01-22T00:10:16.859Z,73.18
2023-01-22T00:12:44.217Z,70.00
2023-01-22T00:15:11.079Z,70.25
2023-01-22T00:17:38.209Z,68.72
2023-01-22T00:20:06.559Z,69.60
2023-01-22T00:22:33.676Z,73.68
2023-01-22T00:25:00.494Z,68.65
2023-01-22T00:27:27.655Z,67.95
2023-01-22T00:29:54.460Z,70.22
2023-01-22T00:32:21.718Z,68.35
2023-01-22T00:34:52.352Z,67.45
2023-01-22T00:37:20.346Z,74.25
2023-01-22T00:39:47.328Z,65.63
2023-01-22T00:42:14.385Z,71.13
2023-01-22T00:44:41.187Z,66.28
2023-01-22T00:47:08.291Z,66.45
2023-01-22T00:49:35.025Z,71.45
2023-01-22T00:52:02.163Z,71.57
2023-01-22T00:54:30.291Z,69.25
2023-01-22T00:56:57.409Z,65.07
2023-01-22T00:59:24.245Z,67.45
2023-01-22T01:01:51.467Z,68.97
2023-01-22T01:04:18.323Z,66.88
2023-01-22T01:06:45.600Z,70.38
2023-01-22T01:09:12.578Z,68.20
2023-01-22T01:11:39.621Z,69.68
2023-01-22T01:14:06.465Z,70.72
2023-01-22T01:16:33.670Z,71.90
2023-01-22T01:19:05.199Z,74.65
2023-01-22T01:21:32.395Z,78.88
2023-01-22T01:23:59.326Z,72.05
2023-01-22T01:26:26.478Z,76.30
2023-01-22T01:28:53.407Z,71.97
2023-01-22T01:31:21.678Z,73.32
2023-01-22T01:33:48.893Z,71.97
2023-01-22T01:36:35.486Z,74.80
2023-01-22T01:39:07.590Z,74.13
2023-01-22T01:41:34.675Z,75.78
2023-01-22T01:44:08.587Z,77.00
2023-01-22T01:46:37.043Z,73.75
2023-01-22T01:49:03.847Z,79.68
2023-01-22T01:51:34.343Z,82.18
2023-01-22T01:54:01.228Z,74.65
2023-01-22T01:56:44.026Z,75.68
2023-01-22T01:59:12.156Z,79.07
2023-01-22T02:01:39.278Z,73.47
2023-01-22T02:04:06.495Z,78.32
2023-01-22T02:06:33.525Z,76.15
2023-01-22T02:09:00.590Z,76.45
2023-01-22T02:11:27.744Z,77.10
2023-01-22T02:14:17.138Z,76.85
2023-01-22T02:16:44.439Z,78.40
2023-01-22T02:19:11.224Z,77.35
2023-01-22T02:21:44.773Z,76.10
2023-01-22T02:24:15.837Z,82.32
2023-01-22T02:26:44.261Z,83.03
2023-01-22T02:29:12.847Z,82.60
2023-01-22T02:31:40.513Z,79.40
2023-01-22T02:34:07.838Z,83.13
2023-01-22T02:36:35.715Z,79.28
2023-01-22T02:39:02.620Z,80.95
2023-01-22T02:41:29.740Z,87.15
2023-01-22T02:43:56.595Z,84.15
2023-01-22T02:46:25.335Z,82.32
2023-01-22T02:48:52.127Z,76.13
2023-01-22T02:51:19.249Z,83.82
2023-01-22T02:53:46.048Z,75.78
2023-01-22T02:56:13.075Z,83.57
2023-01-22T02:58:40.152Z,85.78
2023-01-22T03:01:19.068Z,78.22
2023-01-22T03:03:58.652Z,77.85
2023-01-22T03:06:26.693Z,82.63
2023-01-22T03:08:58.094Z,77.43
2023-01-22T03:11:26.879Z,83.10
2023-01-22T03:14:12.819Z,86.93
2023-01-22T03:16:58.472Z,83.18
2023-01-22T03:19:43.877Z,81.25
2023-01-22T03:24:37.770Z,76.68
2023-01-22T03:27:04.989Z,78.25
2023-01-22T03:29:31.734Z,84.63
2023-01-22T03:31:58.960Z,89.93
2023-01-22T03:34:25.962Z,77.07
2023-01-22T03:36:53.141Z,77.95
2023-01-22T03:39:19.931Z,78.03
2023-01-22T03:41:47.023Z,81.68
2023-01-22T03:44:14.343Z,75.90
2023-01-22T03:46:41.390Z,81.95
2023-01-22T03:49:08.749Z,80.88
2023-01-22T03:51:35.880Z,78.82
2023-01-22T03:54:02.652Z,79.97
2023-01-22T03:56:29.787Z,77.97
2023-01-22T03:58:56.617Z,78.78
2023-01-22T04:01:25.368Z,76.18
2023-01-22T04:03:52.607Z,73.70
2023-01-22T04:06:19.910Z,75.88
2023-01-22T04:08:47.614Z,74.65
2023-01-22T04:11:14.751Z,73.32
2023-01-22T04:13:42.553Z,73.55
2023-01-22T04:16:09.996Z,77.03
2023-01-22T04:18:36.834Z,73.80
2023-01-22T04:21:04.092Z,76.45
2023-01-22T04:23:30.859Z,76.82
2023-01-22T04:25:58.047Z,75.00
2023-01-22T04:28:24.769Z,70.55
2023-01-22T04:30:53.274Z,75.28
2023-01-22T04:33:20.188Z,63.78
2023-01-22T04:35:54.085Z,69.18
2023-01-22T04:38:20.922Z,72.72
2023-01-22T04:40:48.027Z,67.43
2023-01-22T04:43:14.778Z,65.70
2023-01-22T04:45:41.850Z,68.65
2023-01-22T04:48:09.299Z,72.90
2023-01-22T04:50:36.430Z,65.45
2023-01-22T04:53:03.424Z,64.35
2023-01-22T04:55:30.622Z,67.13
2023-01-22T04:57:58.211Z,60.88
2023-01-22T05:00:26.040Z,62.63
2023-01-22T05:02:57.576Z,65.65
2023-01-22T05:05:24.856Z,65.20
2023-01-22T05:07:51.705Z,64.82
2023-01-22T05:10:19.176Z,62.78
2023-01-22T05:12:46.225Z,67.95
2023-01-22T05:15:23.609Z,63.72
2023-01-22T05:17:52.238Z,55.47
2023-01-22T05:20:19.812Z,60.55
2023-01-22T05:22:46.803Z,54.58
2023-01-22T05:25:13.936Z,61.75
2023-01-22T05:27:40.743Z,60.50
2023-01-22T05:30:08.494Z,62.10
2023-01-22T05:32:35.305Z,58.15
2023-01-22T05:35:02.929Z,57.83
2023-01-22T05:37:31.304Z,55.75
2023-01-22T05:39:58.364Z,57.10
2023-01-22T05:42:25.191Z,55.88
2023-01-22T05:44:52.307Z,54.85
2023-01-22T05:47:19.077Z,54.25
2023-01-22T05:49:46.156Z,51.47
2023-01-22T05:52:13.032Z,54.50
2023-01-22T05:54:40.131Z,48.85
2023-01-22T05:57:06.973Z,55.15
2023-01-22T05:59:34.099Z,48.65
2023-01-22T06:02:01.059Z,53.72
2023-01-22T06:04:28.375Z,52.28
2023-01-22T06:06:55.112Z,52.42
2023-01-22T06:09:22.297Z,51.13
2023-01-22T06:11:49.124Z,52.40
2023-01-22T06:14:16.425Z,50.85
2023-01-22T06:16:43.277Z,49.90
2023-01-22T06:19:10.506Z,50.60
2023-01-22T06:21:37.256Z,47.90
2023-01-22T06:24:04.479Z,48.92
2023-01-22T06:26:31.263Z,49.05
2023-01-22T06:28:58.384Z,46.60
2023-01-22T06:31:25.416Z,45.20
2023-01-22T06:33:53.126Z,46.95
2023-01-22T06:36:19.853Z,46.05
2023-01-22T06:38:46.989Z,44.40
2023-01-22T06:41:13.739Z,39.45
2023-01-22T06:43:40.792Z,44.33
2023-01-22T06:46:07.570Z,40.08
2023-01-22T06:48:34.708Z,40.88
2023-01-22T06:51:01.525Z,40.50
2023-01-22T06:53:28.709Z,40.70
2023-01-22T06:55:55.553Z,37.30
2023-01-22T06:58:22.617Z,39.08
2023-01-22T07:00:49.397Z,36.72
2023-01-22T07:03:16.490Z,33.20
2023-01-22T07:05:43.225Z,36.08
2023-01-22T07:08:16.490Z,34.83
2023-01-22T07:10:43.257Z,34.88
2023-01-22T07:13:10.489Z,33.40
2023-01-22T07:15:37.328Z,31.05
2023-01-22T07:18:04.499Z,32.38
2023-01-22T07:20:31.260Z,30.50
2023-01-22T07:23:00.239Z,28.77
2023-01-22T07:25:27.601Z,27.33
2023-01-22T07:28:04.296Z,26.70
2023-01-22T07:30:31.155Z,30.75
2023-01-22T07:33:00.316Z,26.42
2023-01-22T07:35:27.426Z,26.13
2023-01-22T07:37:55.228Z,27.33
2023-01-22T07:40:24.217Z,27.70
2023-01-22T07:42:51.865Z,26.45
2023-01-22T07:45:19.402Z,25.83
2023-01-22T07:47:54.666Z,26.13
2023-01-22T07:50:24.902Z,27.38
2023-01-22T07:52:51.948Z,20.35
2023-01-22T07:55:18.780Z,23.58
2023-01-22T07:57:45.837Z,22.77
2023-01-22T08:00:13.094Z,21.77
2023-01-22T08:02:40.186Z,24.15
2023-01-22T08:05:07.575Z,24.88
2023-01-22T08:07:34.646Z,22.92
2023-01-22T08:10:01.451Z,22.80
2023-01-22T08:12:28.617Z,22.85
2023-01-22T08:14:55.370Z,27.75
2023-01-22T08:17:22.494Z,24.75
2023-01-22T08:19:49.262Z,23.50
2023-01-22T08:22:16.284Z,23.40
2023-01-22T08:24:43.197Z,21.40
2023-01-22T08:27:10.269Z,24.48
2023-01-22T08:29:37.062Z,24.27
2023-01-22T08:32:04.320Z,22.23
2023-01-22T08:34:31.132Z,25.50
2023-01-22T08:36:58.202Z,20.77
2023-01-22T08:39:25.003Z,23.50
2023-01-22T08:41:57.368Z,20.95
2023-01-22T08:44:24.837Z,24.05
2023-01-22T08:46:52.100Z,25.05
2023-01-22T08:49:18.906Z,21.55
2023-01-22T08:51:45.954Z,19.63
2023-01-22T08:54:12.700Z,23.75
2023-01-22T08:56:39.766Z,22.65
2023-01-22T08:59:06.745Z,20.45
2023-01-22T09:01:33.966Z,23.00
2023-01-22T09:04:00.706Z,21.33
2023-01-22T09:06:28.193Z,21.60
2023-01-22T09:08:55.339Z,24.48
2023-01-22T09:11:22.429Z,22.67
2023-01-22T09:13:49.313Z,23.80
2023-01-22T09:16:16.395Z,22.40
2023-01-22T09:18:43.226Z,21.77
2023-01-22T09:21:10.363Z,21.73
2023-01-22T09:23:37.115Z,21.52
2023-01-22T09:26:04.321Z,23.73
2023-01-22T09:28:31.300Z,26.02
2023-01-22T09:30:58.420Z,24.20
2023-01-22T09:33:25.201Z,25.13
2023-01-22T09:35:52.281Z,20.48
2023-01-22T09:38:19.050Z,22.33
2023-01-22T09:40:54.896Z,23.10
2023-01-22T09:43:25.068Z,22.20
2023-01-22T09:45:53.663Z,25.55
2023-01-22T09:48:21.080Z,21.58
2023-01-22T09:50:48.153Z,23.05
2023-01-22T09:53:17.137Z,21.65
2023-01-22T09:55:46.416Z,21.50
2023-01-22T09:58:18.499Z,22.95
2023-01-22T10:00:49.147Z,23.55
2023-01-22T10:03:36.507Z,23.90
2023-01-22T10:06:21.433Z,24.65
2023-01-22T10:09:00.633Z,21.25
2023-01-22T10:11:27.755Z,21.42
2023-01-22T10:13:56.429Z,22.08
2023-01-22T10:16:23.592Z,19.85
2023-01-22T10:18:53.201Z,21.23
2023-01-22T10:21:32.131Z,18.95
2023-01-22T10:23:59.063Z,21.98
2023-01-22T10:26:36.563Z,20.58
2023-01-22T10:29:06.069Z,19.85
2023-01-22T10:31:39.893Z,21.67
2023-01-22T10:34:17.445Z,20.77
2023-01-22T10:36:51.885Z,19.23
2023-01-22T10:39:18.915Z,20.98
2023-01-22T10:41:46.832Z,22.10
2023-01-22T10:44:16.615Z,21.27
2023-01-22T10:46:43.716Z,19.30
2023-01-22T10:49:30.165Z,24.35
2023-01-22T10:51:59.075Z,21.95
2023-01-22T10:54:25.816Z,25.23
2023-01-22T10:56:53.519Z,23.23
2023-01-22T10:59:26.468Z,23.33
2023-01-22T11:02:15.839Z,23.00
2023-01-22T11:04:42.697Z,25.27
2023-01-22T11:07:18.298Z,22.02
2023-01-22T11:12:19.650Z,25.13
2023-01-22T11:14:46.665Z,24.27
2023-01-22T11:17:21.260Z,22.67
2023-01-22T11:20:10.344Z,23.57
2023-01-22T11:22:38.957Z,22.73
2023-01-22T11:25:09.328Z,23.67
2023-01-22T11:28:06.027Z,24.02
2023-01-22T11:30:56.041Z,20.73
2023-01-22T11:33:44.635Z,23.23
2023-01-22T11:36:19.417Z,26.73
2023-01-22T11:38:53.628Z,26.50
2023-01-22T11:41:36.240Z,25.35
2023-01-22T11:44:03.402Z,25.52
2023-01-22T11:46:42.516Z,25.23
2023-01-22T11:49:50.971Z,23.60
2023-01-22T11:52:42.457Z,27.63
2023-01-22T11:55:39.749Z,28.33
2023-01-22T11:58:25.850Z,29.42
2023-01-22T12:01:29.371Z,27.95
2023-01-22T12:04:07.752Z,27.38
2023-01-22T12:06:34.803Z,26.63
2023-01-22T12:09:15.251Z,26.80
2023-01-22T12:12:00.881Z,29.42
2023-01-22T12:14:36.449Z,30.00
2023-01-22T12:17:03.635Z,37.38
2023-01-22T12:19:33.239Z,30.95
2023-01-22T12:22:22.921Z,27.73
2023-01-22T12:25:21.058Z,28.80
2023-01-22T12:27:53.157Z,27.15
2023-01-22T12:30:23.799Z,28.58
2023-01-22T12:33:02.317Z,26.48
2023-01-22T12:35:30.724Z,25.70
2023-01-22T12:38:06.914Z,31.80
2023-01-22T12:41:10.992Z,27.42
2023-01-22T12:43:50.537Z,29.63
2023-01-22T12:46:26.512Z,31.67
2023-01-22T12:49:09.515Z,31.00
2023-01-22T12:51:41.377Z,25.90
2023-01-22T12:54:19.727Z,24.38
2023-01-22T12:56:47.226Z,31.77
2023-01-22T12:59:41.299Z,27.23
2023-01-22T13:02:26.731Z,31.20
2023-01-22T13:04:54.485Z,29.67
2023-01-22T13:07:36.361Z,27.15
2023-01-22T13:10:25.287Z,26.95
2023-01-22T13:12:53.560Z,31.65
2023-01-22T13:15:34.250Z,32.03
2023-01-22T13:18:15.161Z,31.63
2023-01-22T13:21:09.453Z,30.73
2023-01-22T13:23:40.866Z,29.38
2023-01-22T13:26:08.121Z,31.27
2023-01-22T13:28:34.982Z,31.35
2023-01-22T13:31:04.315Z,28.25
2023-01-22T13:33:31.668Z,32.90
2023-01-22T13:35:59.009Z,34.42
2023-01-22T13:38:29.853Z,30.42
2023-01-22T13:41:01.413Z,31.98
2023-01-22T13:43:28.276Z,30.75
2023-01-22T13:45:56.309Z,31.50
2023-01-22T13:48:24.433Z,31.73
2023-01-22T13:50:57.487Z,33.83
2023-01-22T13:53:40.692Z,33.50
2023-01-22T13:56:11.130Z,34.20
2023-01-22T13:58:48.285Z,28.25
2023-01-22T14:01:30.932Z,31.08
2023-01-22T14:04:02.311Z,33.45
2023-01-22T14:06:29.626Z,32.47
2023-01-22T14:08:57.525Z,35.33
2023-01-22T14:11:24.924Z,35.05
2023-01-22T14:13:52.786Z,37.88
2023-01-22T14:16:20.311Z,32.72
2023-01-22T14:18:47.528Z,35.00
2023-01-22T14:21:15.058Z,33.55
2023-01-22T14:23:42.861Z,33.10
2023-01-22T14:26:09.954Z,30.20
2023-01-22T14:28:36.768Z,36.38
2023-01-22T14:31:04.225Z,35.05
2023-01-22T14:33:32.348Z,34.90
2023-01-22T14:35:59.508Z,36.03
2023-01-22T14:38:26.458Z,34.85
2023-01-22T14:40:53.675Z,32.67
2023-01-22T14:43:20.576Z,35.55
2023-01-22T14:45:47.855Z,33.67
2023-01-22T14:48:19.355Z,37.95
2023-01-22T14:50:46.745Z,33.80
2023-01-22T14:53:13.932Z,38.35
2023-01-22T14:55:42.608Z,36.78
2023-01-22T14:58:10.166Z,34.53
2023-01-22T15:00:38.026Z,35.47
2023-01-22T15:03:05.026Z,34.88
2023-01-22T15:05:34.630Z,36.47
2023-01-22T15:08:02.442Z,33.92
2023-01-22T15:10:29.488Z,37.17
2023-01-22T15:12:56.358Z,35.95
2023-01-22T15:15:26.295Z,35.65
2023-01-22T15:17:53.794Z,38.15
2023-01-22T15:20:21.447Z,34.25
2023-01-22T15:22:49.653Z,35.05
2023-01-22T15:25:17.131Z,36.28
2023-01-22T15:27:44.664Z,37.72
2023-01-22T15:30:14.117Z,36.25
2023-01-22T15:32:41.084Z,39.55
2023-01-22T15:35:08.641Z,34.42
2023-01-22T15:37:35.468Z,32.83
2023-01-22T15:40:02.603Z,35.95
2023-01-22T15:42:29.476Z,37.17
2023-01-22T15:44:56.564Z,32.20
2023-01-22T15:47:23.348Z,35.60
2023-01-22T15:49:50.420Z,39.35
2023-01-22T15:52:17.263Z,36.58
2023-01-22T15:54:44.386Z,37.90
2023-01-22T15:57:11.175Z,42.17
2023-01-22T15:59:41.434Z,37.78
2023-01-22T16:02:11.291Z,38.40
2023-01-22T16:04:38.428Z,38.83
2023-01-22T16:07:05.190Z,41.47
2023-01-22T16:09:32.477Z,41.90
2023-01-22T16:11:59.394Z,46.55
2023-01-22T16:14:28.358Z,45.88
2023-01-22T16:16:55.320Z,52.58
2023-01-22T16:19:22.450Z,44.45
2023-01-22T16:21:49.306Z,49.38
2023-01-22T16:24:16.385Z,49.58
2023-01-22T16:26:43.126Z,52.38
2023-01-22T16:29:10.267Z,50.60
2023-01-22T16:31:38.363Z,51.22
2023-01-22T16:34:13.539Z,47.03
2023-01-22T16:36:40.960Z,53.83
2023-01-22T16:39:08.436Z,52.08
2023-01-22T16:41:36.246Z,48.92
2023-01-22T16:44:07.662Z,55.90
2023-01-22T16:46:35.660Z,48.65
2023-01-22T16:49:06.985Z,53.42
2023-01-22T16:51:35.915Z,52.03
2023-01-22T16:54:03.069Z,52.85
2023-01-22T16:56:29.917Z,48.60
2023-01-22T16:58:57.408Z,48.30
2023-01-22T17:01:24.278Z,53.03
2023-01-22T17:03:51.415Z,49.45
2023-01-22T17:06:27.136Z,49.47
2023-01-22T17:08:54.324Z,46.92
2023-01-22T17:11:21.315Z,52.65
2023-01-22T17:13:48.571Z,47.90
2023-01-22T17:16:15.768Z,46.65
2023-01-22T17:18:42.929Z,50.30
2023-01-22T17:21:11.428Z,51.08
2023-01-22T17:23:38.672Z,45.70
2023-01-22T17:26:09.950Z,50.55
2023-01-22T17:28:37.662Z,44.67
2023-01-22T17:31:12.139Z,47.08
2023-01-22T17:33:39.510Z,42.72
2023-01-22T17:36:06.970Z,48.55
2023-01-22T17:38:38.332Z,45.05
2023-01-22T17:41:24.889Z,43.50
2023-01-22T17:43:52.657Z,45.42
2023-01-22T17:46:21.331Z,43.15
2023-01-22T17:48:48.960Z,42.78
2023-01-22T17:51:17.441Z,40.47
2023-01-22T17:53:45.367Z,41.35
2023-01-22T17:56:16.900Z,40.28
2023-01-22T17:58:54.097Z,47.33
2023-01-22T18:01:21.982Z,44.75
2023-01-22T18:03:49.337Z,42.47
2023-01-22T18:06:16.235Z,45.80
2023-01-22T18:08:43.516Z,42.55
2023-01-22T18:11:15.464Z,44.72
2023-01-22T18:13:42.668Z,45.60
2023-01-22T18:16:12.411Z,46.33
2023-01-22T18:18:39.525Z,43.38
2023-01-22T18:21:07.010Z,43.13
2023-01-22T18:23:35.691Z,42.83
2023-01-22T18:26:05.949Z,41.47
2023-01-22T18:28:33.487Z,44.20
2023-01-22T18:31:19.435Z,43.55
2023-01-22T18:33:48.230Z,47.55
2023-01-22T18:36:17.031Z,45.88
2023-01-22T18:38:44.337Z,45.42
2023-01-22T18:41:15.916Z,48.85
2023-01-22T18:43:43.243Z,48.58
2023-01-22T18:46:11.841Z,48.70
2023-01-22T18:48:40.131Z,52.53
2023-01-22T18:51:08.996Z,46.70
2023-01-22T18:53:37.116Z,45.00
2023-01-22T18:56:05.165Z,49.13
2023-01-22T18:58:34.274Z,51.55
2023-01-22T19:01:15.475Z,47.17
2023-01-22T19:03:43.999Z,50.13
2023-01-22T19:06:16.213Z,49.55
2023-01-22T19:08:44.967Z,49.83
2023-01-22T19:11:12.303Z,49.78
2023-01-22T19:13:40.295Z,47.83
2023-01-22T19:16:12.185Z,46.47
2023-01-22T19:18:42.374Z,50.30
2023-01-22T19:21:17.340Z,48.58
2023-01-22T19:23:49.355Z,51.95
2023-01-22T19:26:18.447Z,43.72
2023-01-22T19:28:45.666Z,46.40
2023-01-22T19:31:23.237Z,46.95
2023-01-22T19:33:51.400Z,52.10
2023-01-22T19:36:18.506Z,52.00
2023-01-22T19:38:45.723Z,50.13
2023-01-22T19:41:12.548Z,49.20
2023-01-22T19:43:39.757Z,47.00
2023-01-22T19:46:08.313Z,50.53
2023-01-22T19:48:35.827Z,50.95
2023-01-22T19:51:05.529Z,43.63
2023-01-22T19:53:33.757Z,49.80
2023-01-22T19:56:00.703Z,47.53
2023-01-22T19:58:28.361Z,53.10
2023-01-22T20:00:58.159Z,44.72
2023-01-22T20:03:27.369Z,46.85
2023-01-22T20:05:54.661Z,49.72
2023-01-22T20:08:22.008Z,49.55
2023-01-22T20:10:51.147Z,49.92
2023-01-22T20:13:18.428Z,43.88
2023-01-22T20:15:45.417Z,50.58
2023-01-22T20:18:12.584Z,44.53
2023-01-22T20:20:39.489Z,42.20
2023-01-22T20:23:06.761Z,45.47
2023-01-22T20:25:33.643Z,49.55
2023-01-22T20:28:01.009Z,42.85
2023-01-22T20:30:27.875Z,42.10
2023-01-22T20:32:56.649Z,44.00
2023-01-22T20:35:23.718Z,43.47
2023-01-22T20:37:50.936Z,47.58
2023-01-22T20:40:18.162Z,42.78
2023-01-22T20:42:45.580Z,46.97
2023-01-22T20:45:12.527Z,42.13
2023-01-22T20:47:39.715Z,39.13
2023-01-22T20:50:07.102Z,42.65
2023-01-22T20:52:34.370Z,42.83
2023-01-22T20:55:02.616Z,45.03
2023-01-22T20:57:30.411Z,41.83
2023-01-22T20:59:57.312Z,41.85
2023-01-22T21:02:24.609Z,42.40
2023-01-22T21:04:52.825Z,40.80
2023-01-22T21:07:20.169Z,43.35
2023-01-22T21:09:47.111Z,45.70
2023-01-22T21:12:14.346Z,41.88
2023-01-22T21:14:41.166Z,41.15
2023-01-22T21:17:08.400Z,41.85
2023-01-22T21:19:35.396Z,42.22
2023-01-22T21:22:04.017Z,45.50
2023-01-22T21:24:31.212Z,39.25
2023-01-22T21:26:58.385Z,44.17
2023-01-22T21:29:25.484Z,41.17
2023-01-22T21:31:52.878Z,38.35
2023-01-22T21:34:24.180Z,40.60
2023-01-22T21:36:53.712Z,41.30
2023-01-22T21:39:24.846Z,36.63
2023-01-22T21:41:51.885Z,38.28
2023-01-22T21:44:54.890Z,40.90
2023-01-22T21:47:21.753Z,42.90
2023-01-22T21:49:50.032Z,40.75
2023-01-22T21:52:16.893Z,39.25
2023-01-22T21:54:44.107Z,42.33
2023-01-22T21:57:12.676Z,39.08
2023-01-22T21:59:40.511Z,40.78
2023-01-22T22:02:07.595Z,39.47
2023-01-22T22:04:34.762Z,45.05
2023-01-22T22:07:01.543Z,43.58
2023-01-22T22:09:28.784Z,37.80
2023-01-22T22:11:56.461Z,39.08
2023-01-22T22:14:24.438Z,39.72
2023-01-22T22:16:52.113Z,41.70
2023-01-22T22:19:19.525Z,39.45
2023-01-22T22:21:46.545Z,42.70
2023-01-22T22:24:13.958Z,43.70
2023-01-22T22:26:40.793Z,39.75
2023-01-22T22:29:08.157Z,42.60
2023-01-22T22:31:35.061Z,40.70
2023-01-22T22:34:02.289Z,44.95
2023-01-22T22:36:29.789Z,40.53
2023-01-22T22:38:57.010Z,40.40
2023-01-22T22:41:28.540Z,38.00
2023-01-22T22:43:55.676Z,43.70
2023-01-22T22:46:23.284Z,45.85
2023-01-22T22:48:50.786Z,46.85
2023-01-22T22:51:23.024Z,52.30
2023-01-22T22:53:54.965Z,52.75
2023-01-22T22:56:22.093Z,53.17
2023-01-22T22:58:49.384Z,59.40
2023-01-22T23:01:17.887Z,58.30
2023-01-22T23:03:44.967Z,60.28
2023-01-22T23:06:16.680Z,57.10
2023-01-22T23:08:46.155Z,58.38
2023-01-22T23:11:15.418Z,52.95
2023-01-22T23:13:46.761Z,57.13
2023-01-22T23:16:14.423Z,56.60
2023-01-22T23:18:41.548Z,55.70
2023-01-22T23:21:09.968Z,57.70
2023-01-22T23:23:37.299Z,53.63
2023-01-22T23:26:11.606Z,55.45
2023-01-22T23:28:38.979Z,52.25
2023-01-22T23:31:07.285Z,54.58
2023-01-22T23:33:34.611Z,55.75
2023-01-22T23:36:06.081Z,51.92
2023-01-22T23:38:33.206Z,44.63
2023-01-22T23:41:02.038Z,49.25
2023-01-22T23:43:29.399Z,50.83
2023-01-22T23:45:56.687Z,51.58
2023-01-22T23:48:23.880Z,49.75
2023-01-22T23:50:51.346Z,52.70
2023-01-22T23:53:18.550Z,44.28
2023-01-22T23:55:45.507Z,42.45
2023-01-22T23:58:12.633Z,45.00
